createdAt,value
2018-04-15T03:59:53.635Z,80.27
2018-04-15T04:02:20.436Z,67.10
2018-04-15T04:04:47.214Z,69.20
2018-04-15T04:07:14.036Z,60.30
2018-04-15T04:09:41.031Z,62.43
2018-04-15T04:12:07.802Z,65.60
2018-04-15T04:14:34.658Z,60.70
2018-04-15T04:17:02.137Z,64.53
2018-04-15T04:19:34.721Z,61.30
2018-04-15T04:22:07.942Z,52.10
2018-04-15T04:24:40.557Z,52.60
2018-04-15T04:27:07.343Z,58.37
2018-04-15T04:29:34.104Z,56.60
2018-04-15T04:32:00.938Z,54.13
2018-04-15T04:34:27.689Z,58.53
2018-04-15T04:36:54.454Z,63.27
2018-04-15T04:39:21.324Z,59.20
2018-04-15T04:41:48.722Z,51.90
2018-04-15T04:44:15.492Z,59.97
2018-04-15T04:46:42.304Z,54.50
2018-04-15T04:49:09.050Z,54.00
2018-04-15T04:51:35.793Z,60.10
2018-04-15T04:54:03.498Z,64.17
2018-04-15T04:56:30.300Z,58.93
2018-04-15T04:58:57.056Z,59.30
2018-04-15T05:01:24.009Z,52.53
2018-04-15T05:03:50.806Z,57.03
2018-04-15T05:06:17.899Z,59.60
2018-04-15T05:08:45.411Z,64.63
2018-04-15T05:11:12.157Z,66.17
2018-04-15T05:13:38.919Z,63.13
2018-04-15T05:16:06.044Z,63.67
2018-04-15T05:18:32.786Z,74.83
2018-04-15T05:20:59.551Z,72.70
2018-04-15T05:23:26.431Z,53.33
2018-04-15T05:25:53.197Z,69.17
2018-04-15T05:28:19.965Z,60.20
2018-04-15T05:30:47.097Z,61.10
2018-04-15T05:33:13.848Z,68.03
2018-04-15T05:35:40.623Z,68.77
2018-04-15T05:38:07.405Z,64.57
2018-04-15T05:40:34.149Z,61.43
2018-04-15T05:43:01.214Z,64.33
2018-04-15T05:45:27.995Z,65.87
2018-04-15T05:47:54.776Z,56.50
2018-04-15T05:50:22.031Z,65.73
2018-04-15T05:52:48.832Z,58.53
2018-04-15T05:55:15.600Z,61.23
2018-04-15T05:57:42.357Z,52.03
2018-04-15T06:00:09.174Z,51.60
2018-04-15T06:02:35.950Z,64.83
2018-04-15T06:05:02.731Z,56.87
2018-04-15T06:07:29.530Z,57.37
2018-04-15T06:09:56.280Z,55.87
2018-04-15T06:12:23.038Z,58.17
2018-04-15T06:14:49.863Z,63.43
2018-04-15T06:17:16.646Z,52.33
2018-04-15T06:19:43.408Z,56.10
2018-04-15T06:22:10.220Z,48.13
2018-04-15T06:24:37.012Z,48.37
2018-04-15T06:27:03.773Z,54.80
2018-04-15T06:29:30.572Z,48.13
2018-04-15T06:31:57.344Z,47.17
2018-04-15T06:34:24.080Z,47.43
2018-04-15T06:36:50.951Z,45.60
2018-04-15T06:39:17.679Z,53.03
2018-04-15T06:41:44.429Z,41.17
2018-04-15T06:44:11.214Z,45.00
2018-04-15T06:46:37.957Z,41.67
2018-04-15T06:49:04.715Z,38.23
2018-04-15T06:51:31.565Z,44.03
2018-04-15T06:53:59.354Z,47.30
2018-04-15T06:56:26.128Z,40.37
2018-04-15T06:58:52.922Z,35.80
2018-04-15T07:01:19.689Z,42.80
2018-04-15T07:03:46.444Z,44.33
2018-04-15T07:06:13.257Z,35.90
2018-04-15T07:08:40.059Z,39.93
2018-04-15T07:11:06.818Z,39.93
2018-04-15T07:13:33.609Z,39.60
2018-04-15T07:16:00.398Z,32.77
2018-04-15T07:18:27.185Z,36.53
2018-04-15T07:20:54.640Z,36.60
2018-04-15T07:23:21.406Z,34.43
2018-04-15T07:25:48.766Z,30.37
2018-04-15T07:28:15.583Z,30.07
2018-04-15T07:30:42.356Z,38.53
2018-04-15T07:33:09.159Z,33.00
2018-04-15T07:35:36.014Z,34.13
2018-04-15T07:38:02.812Z,37.50
2018-04-15T07:40:29.932Z,31.00
2018-04-15T07:42:56.811Z,34.33
2018-04-15T07:45:23.556Z,34.13
2018-04-15T07:47:50.324Z,35.83
2018-04-15T07:50:17.136Z,28.23
2018-04-15T07:52:43.917Z,32.90
2018-04-15T07:55:10.736Z,37.60
2018-04-15T07:57:37.548Z,33.80
2018-04-15T08:00:04.331Z,29.30
2018-04-15T08:02:31.396Z,29.23
2018-04-15T08:04:58.446Z,29.87
2018-04-15T08:07:25.203Z,25.80
2018-04-15T08:09:51.999Z,29.87
2018-04-15T08:12:18.812Z,30.27
2018-04-15T08:14:45.589Z,27.97
2018-04-15T08:17:12.416Z,28.23
2018-04-15T08:19:39.182Z,29.70
2018-04-15T08:22:06.709Z,28.30
2018-04-15T08:24:33.460Z,30.30
2018-04-15T08:27:00.297Z,24.30
2018-04-15T08:29:27.061Z,25.97
2018-04-15T08:31:53.809Z,30.63
2018-04-15T08:34:20.597Z,27.33
2018-04-15T08:36:48.124Z,31.87
2018-04-15T08:39:14.880Z,27.27
2018-04-15T08:41:41.701Z,25.00
2018-04-15T08:44:08.474Z,27.37
2018-04-15T08:46:35.270Z,28.67
2018-04-15T08:49:02.683Z,28.90
2018-04-15T08:51:30.153Z,26.57
2018-04-15T08:53:56.944Z,25.00
2018-04-15T08:56:23.758Z,29.70
2018-04-15T08:58:50.501Z,22.57
2018-04-15T09:01:17.299Z,26.70
2018-04-15T09:03:44.108Z,26.00
2018-04-15T09:06:11.203Z,28.03
2018-04-15T09:08:37.976Z,25.37
2018-04-15T09:11:04.781Z,27.27
2018-04-15T09:13:31.585Z,31.47
2018-04-15T09:15:58.368Z,27.17
2018-04-15T09:18:25.181Z,23.80
2018-04-15T09:20:52.187Z,27.13
2018-04-15T09:23:18.948Z,29.93
2018-04-15T09:25:45.773Z,25.60
2018-04-15T09:28:13.177Z,30.17
2018-04-15T09:30:45.754Z,26.40
2018-04-15T09:33:12.557Z,30.67
2018-04-15T09:35:39.358Z,30.83
2018-04-15T09:38:06.147Z,30.73
2018-04-15T09:40:32.904Z,27.80
2018-04-15T09:42:59.709Z,32.03
2018-04-15T09:45:26.539Z,31.87
2018-04-15T09:47:53.301Z,29.83
2018-04-15T09:50:20.081Z,29.47
2018-04-15T09:52:46.850Z,27.90
2018-04-15T09:55:13.673Z,32.87
2018-04-15T09:57:40.457Z,33.93
2018-04-15T10:00:07.254Z,28.40
2018-04-15T10:02:34.033Z,28.20
2018-04-15T10:05:00.807Z,32.43
2018-04-15T10:07:27.619Z,37.17
2018-04-15T10:09:54.399Z,32.07
2018-04-15T10:12:21.208Z,31.37
2018-04-15T10:14:47.981Z,38.23
2018-04-15T10:17:14.749Z,33.77
2018-04-15T10:19:41.532Z,31.80
2018-04-15T10:22:08.510Z,38.30
2018-04-15T10:24:35.275Z,40.13
2018-04-15T10:27:02.070Z,32.43
2018-04-15T10:29:28.857Z,39.63
2018-04-15T10:31:55.685Z,39.93
2018-04-15T10:34:22.451Z,38.97
2018-04-15T10:36:49.237Z,35.67
2018-04-15T10:39:15.997Z,30.70
2018-04-15T10:41:42.768Z,34.57
2018-04-15T10:44:09.566Z,42.87
2018-04-15T10:46:36.336Z,37.53
2018-04-15T10:49:03.107Z,41.07
2018-04-15T10:51:29.930Z,33.07
2018-04-15T10:53:56.711Z,38.57
2018-04-15T10:56:23.521Z,38.97
2018-04-15T10:58:50.271Z,40.57
2018-04-15T11:01:17.055Z,38.57
2018-04-15T11:03:43.816Z,40.27
2018-04-15T11:06:10.584Z,48.63
2018-04-15T11:08:37.418Z,42.43
2018-04-15T11:11:04.172Z,40.73
2018-04-15T11:13:30.944Z,42.30
2018-04-15T11:15:57.780Z,40.50
2018-04-15T11:18:24.546Z,46.47
2018-04-15T11:20:51.391Z,42.90
2018-04-15T11:23:18.223Z,46.57
2018-04-15T11:25:45.019Z,35.80
2018-04-15T11:28:11.796Z,42.53
2018-04-15T11:30:38.628Z,47.73
2018-04-15T11:33:05.439Z,44.10
2018-04-15T11:35:32.368Z,40.10
2018-04-15T11:37:59.151Z,45.17
2018-04-15T11:40:25.932Z,41.13
2018-04-15T11:42:52.718Z,49.70
2018-04-15T11:45:19.803Z,50.23
2018-04-15T11:47:46.579Z,45.20
2018-04-15T11:50:13.367Z,45.07
2018-04-15T11:52:40.149Z,47.90
2018-04-15T11:55:06.929Z,48.20
2018-04-15T11:57:33.725Z,50.53
2018-04-15T12:00:00.491Z,48.37
2018-04-15T12:02:27.316Z,51.60
2018-04-15T12:04:54.066Z,53.37
2018-04-15T12:07:20.828Z,50.23
2018-04-15T12:09:47.802Z,59.83
2018-04-15T12:12:14.557Z,53.97
2018-04-15T12:14:41.604Z,49.10
2018-04-15T12:17:08.355Z,54.73
2018-04-15T12:19:35.114Z,56.63
2018-04-15T12:22:01.905Z,53.70
2018-04-15T12:24:29.458Z,46.50
2018-04-15T12:26:56.204Z,48.97
2018-04-15T12:29:22.973Z,43.73
2018-04-15T12:31:49.750Z,47.00
2018-04-15T12:34:16.550Z,42.77
2018-04-15T12:36:43.703Z,50.63
2018-04-15T12:39:10.481Z,57.73
2018-04-15T12:41:37.257Z,48.87
2018-04-15T12:44:04.017Z,54.07
2018-04-15T12:46:30.879Z,57.97
2018-04-15T12:48:57.741Z,49.33
2018-04-15T12:51:24.492Z,50.93
2018-04-15T12:53:51.263Z,51.63
2018-04-15T12:56:18.028Z,52.13
2018-04-15T12:58:44.835Z,48.03
2018-04-15T13:01:11.940Z,55.53
2018-04-15T13:03:38.724Z,53.17
2018-04-15T13:06:05.519Z,52.57
2018-04-15T13:08:32.283Z,54.33
2018-04-15T13:10:59.100Z,61.80
2018-04-15T13:13:25.901Z,58.40
2018-04-15T13:15:52.662Z,55.93
2018-04-15T13:18:19.525Z,55.60
2018-04-15T13:20:46.360Z,53.10
2018-04-15T13:23:14.094Z,55.13
2018-04-15T13:25:40.904Z,61.23
2018-04-15T13:28:09.011Z,51.57
2018-04-15T13:30:35.809Z,55.83
2018-04-15T13:33:02.583Z,51.30
2018-04-15T13:35:29.365Z,47.60
2018-04-15T13:37:56.155Z,57.87
2018-04-15T13:40:22.989Z,46.50
2018-04-15T13:42:50.512Z,61.00
2018-04-15T13:45:17.313Z,50.57
2018-04-15T13:47:44.189Z,55.10
2018-04-15T13:50:11.293Z,53.80
2018-04-15T13:52:38.797Z,56.13
2018-04-15T13:55:05.583Z,38.23
2018-04-15T13:57:32.383Z,48.67
2018-04-15T13:59:59.202Z,44.80
2018-04-15T14:02:25.982Z,44.80
2018-04-15T14:04:52.780Z,57.80
2018-04-15T14:07:19.558Z,44.87
2018-04-15T14:09:46.364Z,42.83
2018-04-15T14:12:13.312Z,47.90
2018-04-15T14:14:40.083Z,48.60
2018-04-15T14:17:07.559Z,48.93
2018-04-15T14:19:34.642Z,45.67
2018-04-15T14:22:01.469Z,55.40
2018-04-15T14:24:28.277Z,46.90
2018-04-15T14:26:55.150Z,47.57
2018-04-15T14:29:22.837Z,44.10
2018-04-15T14:31:49.616Z,47.97
2018-04-15T14:34:16.477Z,48.13
2018-04-15T14:36:43.400Z,54.30
2018-04-15T14:39:10.310Z,50.03
2018-04-15T14:41:37.197Z,47.97
2018-04-15T14:44:04.033Z,50.67
2018-04-15T14:46:32.247Z,43.47
2018-04-15T14:48:59.774Z,42.67
2018-04-15T14:51:27.305Z,48.87
2018-04-15T14:53:54.093Z,43.13
2018-04-15T14:56:21.493Z,42.27
2018-04-15T14:58:48.318Z,51.63
2018-04-15T15:01:15.868Z,43.00
2018-04-15T15:03:42.666Z,45.20
2018-04-15T15:06:11.695Z,41.27
2018-04-15T15:08:41.270Z,51.53
2018-04-15T15:11:08.336Z,49.97
2018-04-15T15:13:35.241Z,45.73
2018-04-15T15:16:07.738Z,46.73
2018-04-15T15:18:39.230Z,43.53
2018-04-15T15:21:18.284Z,41.53
2018-04-15T15:23:46.274Z,45.43
2018-04-15T15:26:15.751Z,42.27
2018-04-15T15:28:42.536Z,44.47
2018-04-15T15:31:10.000Z,48.37
2018-04-15T15:33:37.901Z,44.10
2018-04-15T15:36:04.686Z,46.67
2018-04-15T15:38:31.476Z,41.30
2018-04-15T15:40:58.571Z,45.33
2018-04-15T15:43:25.346Z,46.77
2018-04-15T15:45:52.914Z,56.70
2018-04-15T15:48:19.921Z,48.33
2018-04-15T15:50:46.762Z,52.53
2018-04-15T15:53:14.239Z,46.57
2018-04-15T15:55:41.366Z,51.53
2018-04-15T15:58:08.638Z,48.20
2018-04-15T16:00:35.419Z,51.10
2018-04-15T16:03:02.298Z,52.47
2018-04-15T16:05:30.015Z,44.80
2018-04-15T16:07:56.794Z,50.00
2018-04-15T16:10:23.610Z,47.90
2018-04-15T16:12:51.040Z,52.83
2018-04-15T16:15:17.819Z,51.57
2018-04-15T16:17:45.202Z,47.57
2018-04-15T16:20:12.004Z,48.70
2018-04-15T16:22:38.828Z,53.17
2018-04-15T16:25:05.750Z,48.93
2018-04-15T16:27:33.006Z,48.17
2018-04-15T16:30:00.439Z,55.57
2018-04-15T16:32:27.208Z,54.77
2018-04-15T16:34:54.033Z,52.77
2018-04-15T16:37:20.796Z,60.00
2018-04-15T16:39:47.632Z,46.70
2018-04-15T16:42:14.427Z,46.50
2018-04-15T16:44:42.148Z,54.27
2018-04-15T16:47:09.385Z,57.00
2018-04-15T16:49:36.276Z,57.83
2018-04-15T16:52:03.087Z,62.23
2018-04-15T16:54:30.531Z,56.40
2018-04-15T16:56:57.330Z,55.77
2018-04-15T16:59:24.149Z,51.83
2018-04-15T17:01:51.684Z,52.10
2018-04-15T17:04:18.587Z,60.63
2018-04-15T17:06:45.412Z,51.50
2018-04-15T17:09:12.289Z,55.63
2018-04-15T17:11:39.244Z,54.87
2018-04-15T17:14:06.037Z,59.00
2018-04-15T17:16:32.849Z,60.13
2018-04-15T17:19:00.588Z,88.37
2018-04-15T17:21:27.365Z,54.50
2018-04-15T17:23:55.035Z,49.13
2018-04-15T17:26:22.634Z,49.37
2018-04-15T17:28:50.086Z,50.53
2018-04-15T17:31:16.855Z,43.27
2018-04-15T17:33:44.370Z,49.67
2018-04-15T17:36:12.165Z,50.90
2018-04-15T17:38:39.044Z,52.67
2018-04-15T17:41:06.775Z,46.70
2018-04-15T17:43:33.554Z,50.73
2018-04-15T17:46:00.498Z,44.77
2018-04-15T17:48:27.323Z,62.00
2018-04-15T17:50:54.109Z,49.77
2018-04-15T17:53:20.892Z,62.73
2018-04-15T17:55:47.665Z,52.97
2018-04-15T17:58:14.458Z,57.87
2018-04-15T18:00:41.277Z,67.97
2018-04-15T18:03:08.666Z,47.83
2018-04-15T18:05:35.457Z,67.70
2018-04-15T18:08:02.227Z,58.47
2018-04-15T18:10:29.003Z,59.63
2018-04-15T18:12:55.798Z,60.53
2018-04-15T18:15:23.234Z,61.90
2018-04-15T18:17:50.033Z,59.33
2018-04-15T18:20:16.839Z,53.23
2018-04-15T18:22:43.602Z,59.43
2018-04-15T18:25:11.010Z,67.67
2018-04-15T18:27:37.790Z,63.77
2018-04-15T18:30:04.931Z,71.07
2018-04-15T18:32:31.740Z,76.33
2018-04-15T18:34:59.218Z,69.90
2018-04-15T18:37:26.484Z,73.13
2018-04-15T18:39:53.294Z,73.30
2018-04-15T18:42:21.433Z,74.27
2018-04-15T18:44:49.635Z,75.37
2018-04-15T18:47:17.195Z,76.33
2018-04-15T18:49:44.027Z,68.40
2018-04-15T18:52:11.448Z,82.83
2018-04-15T18:54:38.241Z,63.63
2018-04-15T18:57:05.786Z,70.50
2018-04-15T18:59:33.660Z,69.07
2018-04-15T19:02:00.896Z,75.07
2018-04-15T19:04:27.816Z,65.67
2018-04-15T19:06:55.067Z,77.50
2018-04-15T19:09:21.875Z,84.33
2018-04-15T19:11:49.612Z,87.53
2018-04-15T19:14:16.428Z,80.33
2018-04-15T19:16:43.727Z,79.50
2018-04-15T19:19:11.391Z,85.53
2018-04-15T19:21:38.452Z,85.97
2018-04-15T19:24:05.342Z,80.60
2018-04-15T19:26:32.185Z,73.13
2018-04-15T19:28:58.984Z,93.43
2018-04-15T19:31:25.788Z,91.00
2018-04-15T19:33:53.173Z,89.37
2018-04-15T19:36:19.951Z,85.37
2018-04-15T19:38:46.803Z,75.10
2018-04-15T19:41:13.589Z,77.73
2018-04-15T19:43:40.487Z,90.30
2018-04-15T19:46:07.250Z,90.80
2018-04-15T19:48:34.042Z,85.27
2018-04-15T19:51:00.906Z,85.50
2018-04-15T19:53:28.044Z,79.33
2018-04-15T19:55:54.803Z,100.67
2018-04-15T19:58:21.602Z,81.07
2018-04-15T20:00:48.390Z,80.27
2018-04-15T20:03:15.387Z,74.17
2018-04-15T20:05:42.181Z,83.00
2018-04-15T20:08:09.297Z,87.93
2018-04-15T20:10:36.064Z,87.30
2018-04-15T20:13:03.805Z,79.40
2018-04-15T20:15:30.598Z,79.03
2018-04-15T20:17:57.397Z,81.77
2018-04-15T20:20:24.183Z,77.70
2018-04-15T20:22:51.058Z,84.10
2018-04-15T20:25:17.872Z,78.40
2018-04-15T20:27:44.791Z,82.57
2018-04-15T20:30:11.544Z,86.97
2018-04-15T20:32:38.330Z,82.23
2018-04-15T20:35:05.152Z,95.63
2018-04-15T20:37:31.958Z,81.43
2018-04-15T20:39:58.823Z,77.27
2018-04-15T20:42:25.602Z,98.90
2018-04-15T20:44:52.990Z,83.27
2018-04-15T20:47:19.772Z,62.40
2018-04-15T20:49:46.578Z,65.43
2018-04-15T20:52:13.483Z,72.70
2018-04-15T20:54:40.250Z,66.27
2018-04-15T20:57:07.071Z,64.03
2018-04-15T20:59:33.842Z,67.83
2018-04-15T21:02:00.648Z,66.30
2018-04-15T21:04:28.183Z,76.83
2018-04-15T21:06:55.023Z,64.40
2018-04-15T21:09:21.830Z,66.23
2018-04-15T21:11:49.691Z,71.33
2018-04-15T21:14:16.474Z,67.67
2018-04-15T21:16:43.312Z,75.83
2018-04-15T21:19:10.077Z,72.13
2018-04-15T21:21:36.857Z,80.77
2018-04-15T21:24:03.640Z,80.20
2018-04-15T21:26:30.405Z,84.00
2018-04-15T21:28:57.204Z,84.97
2018-04-15T21:31:23.957Z,94.10
2018-04-15T21:33:50.798Z,84.00
2018-04-15T21:36:17.566Z,82.37
2018-04-15T21:38:44.364Z,82.17
2018-04-15T21:41:11.154Z,82.23
2018-04-15T21:43:37.912Z,86.63
2018-04-15T21:46:04.788Z,88.70
2018-04-15T21:48:31.573Z,88.07
2018-04-15T21:50:58.343Z,81.20
2018-04-15T21:53:25.188Z,115.80
2018-04-15T21:55:51.954Z,83.97
2018-04-15T21:58:18.717Z,155.20
2018-04-15T22:00:45.497Z,107.43
2018-04-15T22:03:12.258Z,72.30
2018-04-15T22:05:39.100Z,99.53
2018-04-15T22:08:05.856Z,100.07
2018-04-15T22:10:32.651Z,132.53
2018-04-15T22:13:08.092Z,96.10
2018-04-15T22:15:34.872Z,95.53
2018-04-15T22:18:01.720Z,101.83
2018-04-15T22:20:28.839Z,132.90
2018-04-15T22:22:56.134Z,108.20
2018-04-15T22:25:22.906Z,85.40
